sensor_id;sensor_type;location;lat;lon;timestamp;P1;durP1;ratioP1;P2;durP2;ratioP2
66139;SDS011;52945;51.908;8.364;2023-11-19T00:01:25;1.08;;;0.77;;
66139;SDS011;52945;51.908;8.364;2023-11-19T00:04:25;0.77;;;0.75;;
66139;SDS011;52945;51.908;8.364;2023-11-19T00:07:26;1.00;;;0.80;;
66139;SDS011;52945;51.908;8.364;2023-11-19T00:13:28;1.23;;;1.10;;
66139;SDS011;52945;51.908;8.364;2023-11-19T00:16:28;3.85;;;1.00;;
66139;SDS011;52945;51.908;8.364;2023-11-19T00:19:29;0.82;;;0.82;;
66139;SDS011;52945;51.908;8.364;2023-11-19T00:22:29;1.10;;;0.93;;
66139;SDS011;52945;51.908;8.364;2023-11-19T00:25:30;1.23;;;1.00;;
66139;SDS011;52945;51.908;8.364;2023-11-19T00:28:31;1.35;;;1.25;;
66139;SDS011;52945;51.908;8.364;2023-11-19T00:31:33;0.85;;;0.73;;
66139;SDS011;52945;51.908;8.364;2023-11-19T00:34:34;2.40;;;0.88;;
66139;SDS011;52945;51.908;8.364;2023-11-19T00:37:34;1.35;;;0.90;;
66139;SDS011;52945;51.908;8.364;2023-11-19T00:40:35;4.03;;;0.95;;
66139;SDS011;52945;51.908;8.364;2023-11-19T00:43:35;1.85;;;0.90;;
66139;SDS011;52945;51.908;8.364;2023-11-19T00:46:36;1.55;;;0.80;;
66139;SDS011;52945;51.908;8.364;2023-11-19T00:49:37;0.93;;;0.77;;
66139;SDS011;52945;51.908;8.364;2023-11-19T00:52:37;0.90;;;0.80;;
66139;SDS011;52945;51.908;8.364;2023-11-19T00:55:38;1.35;;;0.85;;
66139;SDS011;52945;51.908;8.364;2023-11-19T00:58:39;1.27;;;0.85;;
66139;SDS011;52945;51.908;8.364;2023-11-19T01:01:39;1.00;;;1.00;;
66139;SDS011;52945;51.908;8.364;2023-11-19T01:04:40;0.80;;;0.80;;
66139;SDS011;52945;51.908;8.364;2023-11-19T01:07:40;1.00;;;0.80;;
66139;SDS011;52945;51.908;8.364;2023-11-19T01:10:41;0.70;;;0.70;;
66139;SDS011;52945;51.908;8.364;2023-11-19T01:13:42;1.02;;;0.93;;
66139;SDS011;52945;51.908;8.364;2023-11-19T01:16:44;0.82;;;0.80;;
66139;SDS011;52945;51.908;8.364;2023-11-19T01:19:45;0.95;;;0.75;;
66139;SDS011;52945;51.908;8.364;2023-11-19T01:22:45;1.40;;;1.13;;
66139;SDS011;52945;51.908;8.364;2023-11-19T01:25:48;0.95;;;0.82;;
66139;SDS011;52945;51.908;8.364;2023-11-19T01:28:49;0.85;;;0.85;;
66139;SDS011;52945;51.908;8.364;2023-11-19T01:31:52;2.17;;;1.05;;
66139;SDS011;52945;51.908;8.364;2023-11-19T01:34:53;1.00;;;0.90;;
66139;SDS011;52945;51.908;8.364;2023-11-19T01:37:53;2.15;;;1.08;;
66139;SDS011;52945;51.908;8.364;2023-11-19T01:40:57;1.05;;;0.95;;
66139;SDS011;52945;51.908;8.364;2023-11-19T01:43:58;0.80;;;0.80;;
66139;SDS011;52945;51.908;8.364;2023-11-19T01:46:58;1.33;;;1.23;;
66139;SDS011;52945;51.908;8.364;2023-11-19T01:50:01;1.20;;;1.08;;
66139;SDS011;52945;51.908;8.364;2023-11-19T01:53:06;1.00;;;0.90;;
66139;SDS011;52945;51.908;8.364;2023-11-19T01:56:07;1.23;;;1.02;;
66139;SDS011;52945;51.908;8.364;2023-11-19T01:59:09;1.10;;;0.98;;
66139;SDS011;52945;51.908;8.364;2023-11-19T02:02:13;1.65;;;0.98;;
66139;SDS011;52945;51.908;8.364;2023-11-19T02:05:14;1.45;;;0.90;;
66139;SDS011;52945;51.908;8.364;2023-11-19T02:08:15;1.02;;;0.93;;
66139;SDS011;52945;51.908;8.364;2023-11-19T02:11:15;1.05;;;0.90;;
66139;SDS011;52945;51.908;8.364;2023-11-19T02:14:17;1.30;;;1.10;;
66139;SDS011;52945;51.908;8.364;2023-11-19T02:17:30;2.22;;;1.30;;
66139;SDS011;52945;51.908;8.364;2023-11-19T02:20:31;1.77;;;1.17;;
66139;SDS011;52945;51.908;8.364;2023-11-19T02:23:32;1.73;;;1.10;;
66139;SDS011;52945;51.908;8.364;2023-11-19T02:27:08;1.40;;;1.20;;
66139;SDS011;52945;51.908;8.364;2023-11-19T02:30:02;1.80;;;1.05;;
66139;SDS011;52945;51.908;8.364;2023-11-19T02:33:06;1.73;;;1.63;;
66139;SDS011;52945;51.908;8.364;2023-11-19T02:36:07;2.22;;;1.60;;
66139;SDS011;52945;51.908;8.364;2023-11-19T02:39:08;3.00;;;1.50;;
66139;SDS011;52945;51.908;8.364;2023-11-19T02:42:12;2.63;;;1.70;;
66139;SDS011;52945;51.908;8.364;2023-11-19T02:45:14;3.13;;;1.70;;
66139;SDS011;52945;51.908;8.364;2023-11-19T02:48:15;2.90;;;2.00;;
66139;SDS011;52945;51.908;8.364;2023-11-19T02:51:16;4.15;;;1.92;;
66139;SDS011;52945;51.908;8.364;2023-11-19T02:54:18;3.58;;;1.92;;
66139;SDS011;52945;51.908;8.364;2023-11-19T02:57:21;4.07;;;2.10;;
66139;SDS011;52945;51.908;8.364;2023-11-19T03:00:22;3.63;;;2.22;;
66139;SDS011;52945;51.908;8.364;2023-11-19T03:03:24;4.75;;;2.63;;
66139;SDS011;52945;51.908;8.364;2023-11-19T03:06:30;5.63;;;2.83;;
66139;SDS011;52945;51.908;8.364;2023-11-19T03:09:31;4.75;;;2.47;;
66139;SDS011;52945;51.908;8.364;2023-11-19T03:12:33;6.47;;;3.15;;
66139;SDS011;52945;51.908;8.364;2023-11-19T03:15:34;11.95;;;3.88;;
66139;SDS011;52945;51.908;8.364;2023-11-19T03:18:34;7.60;;;3.70;;
66139;SDS011;52945;51.908;8.364;2023-11-19T03:21:35;7.55;;;4.07;;
66139;SDS011;52945;51.908;8.364;2023-11-19T03:24:36;8.38;;;4.40;;
66139;SDS011;52945;51.908;8.364;2023-11-19T03:27:37;6.72;;;3.72;;
66139;SDS011;52945;51.908;8.364;2023-11-19T03:30:38;6.95;;;3.70;;
66139;SDS011;52945;51.908;8.364;2023-11-19T03:33:39;8.48;;;4.07;;
66139;SDS011;52945;51.908;8.364;2023-11-19T03:36:39;8.27;;;3.90;;
66139;SDS011;52945;51.908;8.364;2023-11-19T03:39:40;8.57;;;3.55;;
66139;SDS011;52945;51.908;8.364;2023-11-19T03:42:41;7.60;;;3.50;;
66139;SDS011;52945;51.908;8.364;2023-11-19T03:45:41;6.90;;;4.22;;
66139;SDS011;52945;51.908;8.364;2023-11-19T03:48:42;7.75;;;3.53;;
66139;SDS011;52945;51.908;8.364;2023-11-19T03:51:43;6.22;;;3.45;;
66139;SDS011;52945;51.908;8.364;2023-11-19T03:54:44;6.85;;;3.20;;
66139;SDS011;52945;51.908;8.364;2023-11-19T03:57:45;4.72;;;3.00;;
66139;SDS011;52945;51.908;8.364;2023-11-19T04:00:48;6.13;;;2.80;;
66139;SDS011;52945;51.908;8.364;2023-11-19T04:03:49;5.13;;;3.03;;
66139;SDS011;52945;51.908;8.364;2023-11-19T04:06:49;4.82;;;2.60;;
66139;SDS011;52945;51.908;8.364;2023-11-19T04:09:50;6.85;;;3.10;;
66139;SDS011;52945;51.908;8.364;2023-11-19T04:12:50;5.07;;;2.65;;
66139;SDS011;52945;51.908;8.364;2023-11-19T04:15:51;6.60;;;3.15;;
66139;SDS011;52945;51.908;8.364;2023-11-19T04:18:52;7.30;;;2.65;;
66139;SDS011;52945;51.908;8.364;2023-11-19T04:21:52;6.22;;;2.67;;
66139;SDS011;52945;51.908;8.364;2023-11-19T04:24:53;5.30;;;2.92;;
66139;SDS011;52945;51.908;8.364;2023-11-19T04:27:53;8.45;;;2.92;;
66139;SDS011;52945;51.908;8.364;2023-11-19T04:30:54;7.63;;;2.83;;
66139;SDS011;52945;51.908;8.364;2023-11-19T04:33:55;7.75;;;2.92;;
66139;SDS011;52945;51.908;8.364;2023-11-19T04:36:55;10.07;;;3.20;;
66139;SDS011;52945;51.908;8.364;2023-11-19T04:39:56;6.57;;;2.92;;
66139;SDS011;52945;51.908;8.364;2023-11-19T04:42:56;10.57;;;3.03;;
66139;SDS011;52945;51.908;8.364;2023-11-19T04:45:57;6.00;;;2.35;;
66139;SDS011;52945;51.908;8.364;2023-11-19T04:48:58;5.95;;;2.70;;
66139;SDS011;52945;51.908;8.364;2023-11-19T04:51:58;6.10;;;2.30;;
66139;SDS011;52945;51.908;8.364;2023-11-19T04:54:59;9.13;;;2.75;;
66139;SDS011;52945;51.908;8.364;2023-11-19T04:57:59;9.15;;;2.17;;
66139;SDS011;52945;51.908;8.364;2023-11-19T05:01:00;8.32;;;2.20;;
66139;SDS011;52945;51.908;8.364;2023-11-19T05:04:01;8.48;;;2.67;;
66139;SDS011;52945;51.908;8.364;2023-11-19T05:07:02;8.15;;;2.33;;
66139;SDS011;52945;51.908;8.364;2023-11-19T05:10:02;5.13;;;2.05;;
66139;SDS011;52945;51.908;8.364;2023-11-19T05:13:04;5.50;;;2.30;;
66139;SDS011;52945;51.908;8.364;2023-11-19T05:16:04;10.50;;;2.60;;
66139;SDS011;52945;51.908;8.364;2023-11-19T05:19:06;5.95;;;2.42;;
66139;SDS011;52945;51.908;8.364;2023-11-19T05:22:06;10.23;;;2.67;;
66139;SDS011;52945;51.908;8.364;2023-11-19T05:25:07;4.22;;;2.13;;
66139;SDS011;52945;51.908;8.364;2023-11-19T05:28:08;7.95;;;2.15;;
66139;SDS011;52945;51.908;8.364;2023-11-19T05:31:09;7.05;;;2.00;;
66139;SDS011;52945;51.908;8.364;2023-11-19T05:34:10;9.30;;;2.50;;
66139;SDS011;52945;51.908;8.364;2023-11-19T05:37:10;8.38;;;2.38;;
66139;SDS011;52945;51.908;8.364;2023-11-19T05:40:11;6.78;;;2.30;;
66139;SDS011;52945;51.908;8.364;2023-11-19T05:43:14;7.03;;;1.90;;
66139;SDS011;52945;51.908;8.364;2023-11-19T05:46:16;2.90;;;1.75;;
66139;SDS011;52945;51.908;8.364;2023-11-19T05:49:17;10.68;;;2.33;;
66139;SDS011;52945;51.908;8.364;2023-11-19T05:52:18;6.00;;;2.42;;
66139;SDS011;52945;51.908;8.364;2023-11-19T05:55:18;8.63;;;2.75;;
66139;SDS011;52945;51.908;8.364;2023-11-19T05:58:19;10.20;;;2.13;;
66139;SDS011;52945;51.908;8.364;2023-11-19T06:01:21;8.95;;;2.40;;
66139;SDS011;52945;51.908;8.364;2023-11-19T06:04:22;10.07;;;2.50;;
66139;SDS011;52945;51.908;8.364;2023-11-19T06:07:22;8.52;;;2.30;;
66139;SDS011;52945;51.908;8.364;2023-11-19T06:10:23;9.07;;;2.08;;
66139;SDS011;52945;51.908;8.364;2023-11-19T06:13:30;6.43;;;2.10;;
66139;SDS011;52945;51.908;8.364;2023-11-19T06:16:31;12.90;;;2.42;;
66139;SDS011;52945;51.908;8.364;2023-11-19T06:19:31;6.00;;;2.30;;
66139;SDS011;52945;51.908;8.364;2023-11-19T06:22:33;12.25;;;2.20;;
66139;SDS011;52945;51.908;8.364;2023-11-19T06:25:33;6.45;;;1.98;;
66139;SDS011;52945;51.908;8.364;2023-11-19T06:28:35;11.88;;;1.98;;
66139;SDS011;52945;51.908;8.364;2023-11-19T06:31:36;8.13;;;2.47;;
66139;SDS011;52945;51.908;8.364;2023-11-19T06:34:37;10.93;;;2.70;;
66139;SDS011;52945;51.908;8.364;2023-11-19T06:37:41;8.40;;;2.45;;
66139;SDS011;52945;51.908;8.364;2023-11-19T06:40:41;9.15;;;2.42;;
66139;SDS011;52945;51.908;8.364;2023-11-19T06:43:42;6.43;;;1.88;;
66139;SDS011;52945;51.908;8.364;2023-11-19T06:46:43;9.98;;;2.15;;
66139;SDS011;52945;51.908;8.364;2023-11-19T06:49:44;12.48;;;2.33;;
66139;SDS011;52945;51.908;8.364;2023-11-19T06:52:45;16.77;;;3.10;;
66139;SDS011;52945;51.908;8.364;2023-11-19T06:55:46;13.75;;;2.58;;
66139;SDS011;52945;51.908;8.364;2023-11-19T06:58:47;13.38;;;2.05;;
66139;SDS011;52945;51.908;8.364;2023-11-19T07:04:49;12.02;;;2.28;;
66139;SDS011;52945;51.908;8.364;2023-11-19T07:07:49;11.38;;;2.45;;
66139;SDS011;52945;51.908;8.364;2023-11-19T07:10:50;7.30;;;2.08;;
66139;SDS011;52945;51.908;8.364;2023-11-19T07:13:51;10.55;;;2.60;;
66139;SDS011;52945;51.908;8.364;2023-11-19T07:16:51;8.48;;;1.83;;
66139;SDS011;52945;51.908;8.364;2023-11-19T07:19:52;11.93;;;2.22;;
66139;SDS011;52945;51.908;8.364;2023-11-19T07:22:53;18.10;;;2.75;;
66139;SDS011;52945;51.908;8.364;2023-11-19T07:25:57;16.73;;;2.45;;
66139;SDS011;52945;51.908;8.364;2023-11-19T07:28:57;12.27;;;2.47;;
66139;SDS011;52945;51.908;8.364;2023-11-19T07:31:58;9.98;;;2.45;;
66139;SDS011;52945;51.908;8.364;2023-11-19T07:34:58;11.93;;;1.98;;
66139;SDS011;52945;51.908;8.364;2023-11-19T07:37:59;13.38;;;2.45;;
66139;SDS011;52945;51.908;8.364;2023-11-19T07:41:00;14.05;;;2.00;;
66139;SDS011;52945;51.908;8.364;2023-11-19T07:44:00;11.52;;;2.10;;
66139;SDS011;52945;51.908;8.364;2023-11-19T07:47:01;11.55;;;2.53;;
66139;SDS011;52945;51.908;8.364;2023-11-19T07:50:01;16.38;;;2.28;;
66139;SDS011;52945;51.908;8.364;2023-11-19T07:53:02;18.25;;;2.58;;
66139;SDS011;52945;51.908;8.364;2023-11-19T07:59:05;12.07;;;2.47;;
66139;SDS011;52945;51.908;8.364;2023-11-19T08:02:06;12.90;;;2.83;;
66139;SDS011;52945;51.908;8.364;2023-11-19T08:05:07;10.20;;;1.95;;
66139;SDS011;52945;51.908;8.364;2023-11-19T08:08:07;13.70;;;2.70;;
66139;SDS011;52945;51.908;8.364;2023-11-19T08:11:08;16.67;;;2.53;;
66139;SDS011;52945;51.908;8.364;2023-11-19T08:14:09;15.23;;;2.25;;
66139;SDS011;52945;51.908;8.364;2023-11-19T08:17:09;15.02;;;2.47;;
66139;SDS011;52945;51.908;8.364;2023-11-19T08:20:10;7.25;;;1.70;;
66139;SDS011;52945;51.908;8.364;2023-11-19T08:23:11;12.57;;;2.53;;
66139;SDS011;52945;51.908;8.364;2023-11-19T08:26:14;12.50;;;2.42;;
66139;SDS011;52945;51.908;8.364;2023-11-19T08:29:15;15.85;;;1.92;;
66139;SDS011;52945;51.908;8.364;2023-11-19T08:32:15;12.60;;;2.35;;
66139;SDS011;52945;51.908;8.364;2023-11-19T08:35:16;12.63;;;2.60;;
66139;SDS011;52945;51.908;8.364;2023-11-19T08:38:16;11.52;;;2.40;;
66139;SDS011;52945;51.908;8.364;2023-11-19T08:41:17;11.32;;;2.92;;
66139;SDS011;52945;51.908;8.364;2023-11-19T08:44:19;14.88;;;2.95;;
66139;SDS011;52945;51.908;8.364;2023-11-19T08:47:19;16.17;;;2.58;;
66139;SDS011;52945;51.908;8.364;2023-11-19T08:50:22;7.10;;;2.03;;
66139;SDS011;52945;51.908;8.364;2023-11-19T08:53:22;13.52;;;3.05;;
66139;SDS011;52945;51.908;8.364;2023-11-19T08:56:23;13.05;;;2.13;;
66139;SDS011;52945;51.908;8.364;2023-11-19T08:59:24;13.43;;;2.83;;
66139;SDS011;52945;51.908;8.364;2023-11-19T09:02:24;8.00;;;2.28;;
66139;SDS011;52945;51.908;8.364;2023-11-19T09:05:25;12.38;;;2.78;;
66139;SDS011;52945;51.908;8.364;2023-11-19T09:08:25;11.02;;;2.35;;
66139;SDS011;52945;51.908;8.364;2023-11-19T09:11:26;12.85;;;2.75;;
66139;SDS011;52945;51.908;8.364;2023-11-19T09:14:26;8.50;;;2.20;;
66139;SDS011;52945;51.908;8.364;2023-11-19T09:17:27;11.18;;;2.00;;
66139;SDS011;52945;51.908;8.364;2023-11-19T09:20:27;9.85;;;2.10;;
66139;SDS011;52945;51.908;8.364;2023-11-19T09:23:32;11.73;;;2.75;;
66139;SDS011;52945;51.908;8.364;2023-11-19T09:26:38;18.15;;;3.15;;
66139;SDS011;52945;51.908;8.364;2023-11-19T09:29:41;12.05;;;2.13;;
66139;SDS011;52945;51.908;8.364;2023-11-19T09:32:43;9.77;;;2.30;;
66139;SDS011;52945;51.908;8.364;2023-11-19T09:35:43;11.25;;;2.33;;
66139;SDS011;52945;51.908;8.364;2023-11-19T09:38:44;16.98;;;2.75;;
66139;SDS011;52945;51.908;8.364;2023-11-19T09:41:45;16.55;;;2.67;;
66139;SDS011;52945;51.908;8.364;2023-11-19T09:44:45;10.00;;;2.50;;
66139;SDS011;52945;51.908;8.364;2023-11-19T09:47:47;7.30;;;2.20;;
66139;SDS011;52945;51.908;8.364;2023-11-19T09:50:52;6.10;;;2.28;;
66139;SDS011;52945;51.908;8.364;2023-11-19T09:53:53;15.32;;;2.42;;
66139;SDS011;52945;51.908;8.364;2023-11-19T09:56:55;14.73;;;2.83;;
66139;SDS011;52945;51.908;8.364;2023-11-19T10:00:03;13.88;;;2.38;;
66139;SDS011;52945;51.908;8.364;2023-11-19T10:03:07;9.70;;;2.63;;
66139;SDS011;52945;51.908;8.364;2023-11-19T10:06:10;9.52;;;2.78;;
66139;SDS011;52945;51.908;8.364;2023-11-19T10:09:12;14.75;;;2.35;;
66139;SDS011;52945;51.908;8.364;2023-11-19T10:12:15;14.60;;;2.50;;
66139;SDS011;52945;51.908;8.364;2023-11-19T10:18:23;12.20;;;2.42;;
66139;SDS011;52945;51.908;8.364;2023-11-19T10:21:25;13.15;;;2.30;;
66139;SDS011;52945;51.908;8.364;2023-11-19T10:24:34;13.80;;;2.10;;
66139;SDS011;52945;51.908;8.364;2023-11-19T10:27:34;11.40;;;2.00;;
66139;SDS011;52945;51.908;8.364;2023-11-19T10:30:35;15.80;;;2.15;;
66139;SDS011;52945;51.908;8.364;2023-11-19T10:33:35;7.50;;;1.95;;
66139;SDS011;52945;51.908;8.364;2023-11-19T10:36:39;21.90;;;2.85;;
66139;SDS011;52945;51.908;8.364;2023-11-19T10:39:53;10.73;;;2.22;;
66139;SDS011;52945;51.908;8.364;2023-11-19T10:43:01;15.90;;;2.28;;
66139;SDS011;52945;51.908;8.364;2023-11-19T10:46:12;14.27;;;2.17;;
66139;SDS011;52945;51.908;8.364;2023-11-19T10:49:14;12.85;;;2.67;;
66139;SDS011;52945;51.908;8.364;2023-11-19T10:52:18;11.02;;;2.03;;
66139;SDS011;52945;51.908;8.364;2023-11-19T10:55:21;15.70;;;2.95;;
66139;SDS011;52945;51.908;8.364;2023-11-19T10:58:30;12.45;;;2.05;;
66139;SDS011;52945;51.908;8.364;2023-11-19T11:01:43;12.77;;;2.30;;
66139;SDS011;52945;51.908;8.364;2023-11-19T11:04:45;13.93;;;2.20;;
66139;SDS011;52945;51.908;8.364;2023-11-19T11:07:47;13.25;;;1.90;;
66139;SDS011;52945;51.908;8.364;2023-11-19T11:10:53;19.25;;;2.13;;
66139;SDS011;52945;51.908;8.364;2023-11-19T11:13:55;15.90;;;2.15;;
66139;SDS011;52945;51.908;8.364;2023-11-19T11:16:58;9.52;;;2.55;;
66139;SDS011;52945;51.908;8.364;2023-11-19T11:20:00;17.95;;;2.60;;
66139;SDS011;52945;51.908;8.364;2023-11-19T11:36:34;13.55;;;1.83;;
66139;SDS011;52945;51.908;8.364;2023-11-19T11:39:49;13.15;;;2.83;;
66139;SDS011;52945;51.908;8.364;2023-11-19T11:42:50;11.48;;;2.20;;
66139;SDS011;52945;51.908;8.364;2023-11-19T11:45:54;10.57;;;1.85;;
66139;SDS011;52945;51.908;8.364;2023-11-19T11:48:54;15.43;;;2.15;;
66139;SDS011;52945;51.908;8.364;2023-11-19T11:51:57;8.00;;;2.13;;
66139;SDS011;52945;51.908;8.364;2023-11-19T11:55:04;13.52;;;2.30;;
66139;SDS011;52945;51.908;8.364;2023-11-19T11:58:08;7.72;;;2.15;;
66139;SDS011;52945;51.908;8.364;2023-11-19T12:04:19;6.22;;;1.70;;
66139;SDS011;52945;51.908;8.364;2023-11-19T12:07:23;11.35;;;2.55;;
66139;SDS011;52945;51.908;8.364;2023-11-19T12:10:24;15.82;;;2.53;;
66139;SDS011;52945;51.908;8.364;2023-11-19T12:13:29;9.85;;;2.65;;
66139;SDS011;52945;51.908;8.364;2023-11-19T12:16:48;13.15;;;2.15;;
66139;SDS011;52945;51.908;8.364;2023-11-19T12:19:50;16.25;;;2.45;;
66139;SDS011;52945;51.908;8.364;2023-11-19T12:22:51;10.85;;;2.78;;
66139;SDS011;52945;51.908;8.364;2023-11-19T12:25:53;11.50;;;2.03;;
66139;SDS011;52945;51.908;8.364;2023-11-19T12:28:57;9.98;;;2.00;;
66139;SDS011;52945;51.908;8.364;2023-11-19T12:31:58;10.20;;;2.17;;
66139;SDS011;52945;51.908;8.364;2023-11-19T12:35:02;14.98;;;2.30;;
66139;SDS011;52945;51.908;8.364;2023-11-19T12:38:03;13.80;;;2.47;;
66139;SDS011;52945;51.908;8.364;2023-11-19T12:41:07;14.23;;;2.55;;
66139;SDS011;52945;51.908;8.364;2023-11-19T12:44:13;12.98;;;2.22;;
66139;SDS011;52945;51.908;8.364;2023-11-19T12:47:13;17.92;;;2.55;;
66139;SDS011;52945;51.908;8.364;2023-11-19T12:50:15;11.98;;;1.90;;
66139;SDS011;52945;51.908;8.364;2023-11-19T12:53:20;9.60;;;1.83;;
66139;SDS011;52945;51.908;8.364;2023-11-19T12:56:21;11.73;;;2.25;;
66139;SDS011;52945;51.908;8.364;2023-11-19T12:59:22;12.65;;;2.13;;
66139;SDS011;52945;51.908;8.364;2023-11-19T13:02:23;9.43;;;2.13;;
66139;SDS011;52945;51.908;8.364;2023-11-19T13:05:43;8.35;;;1.75;;
66139;SDS011;52945;51.908;8.364;2023-11-19T13:08:44;11.52;;;2.00;;
66139;SDS011;52945;51.908;8.364;2023-11-19T13:11:48;9.73;;;2.28;;
66139;SDS011;52945;51.908;8.364;2023-11-19T13:14:49;8.05;;;2.30;;
66139;SDS011;52945;51.908;8.364;2023-11-19T13:17:49;15.18;;;3.08;;
66139;SDS011;52945;51.908;8.364;2023-11-19T13:20:50;12.25;;;2.53;;
66139;SDS011;52945;51.908;8.364;2023-11-19T13:23:51;8.88;;;2.08;;
66139;SDS011;52945;51.908;8.364;2023-11-19T13:26:52;13.93;;;2.20;;
66139;SDS011;52945;51.908;8.364;2023-11-19T13:29:52;10.05;;;2.42;;
66139;SDS011;52945;51.908;8.364;2023-11-19T13:32:53;9.80;;;2.10;;
66139;SDS011;52945;51.908;8.364;2023-11-19T13:35:55;12.13;;;2.10;;
66139;SDS011;52945;51.908;8.364;2023-11-19T13:38:56;12.70;;;2.42;;
66139;SDS011;52945;51.908;8.364;2023-11-19T13:41:59;8.30;;;2.58;;
66139;SDS011;52945;51.908;8.364;2023-11-19T13:45:01;6.97;;;1.90;;
66139;SDS011;52945;51.908;8.364;2023-11-19T13:48:03;8.85;;;1.77;;
66139;SDS011;52945;51.908;8.364;2023-11-19T13:51:04;9.15;;;2.13;;
66139;SDS011;52945;51.908;8.364;2023-11-19T13:54:05;9.23;;;1.92;;
66139;SDS011;52945;51.908;8.364;2023-11-19T13:57:06;12.90;;;2.28;;
66139;SDS011;52945;51.908;8.364;2023-11-19T14:00:07;10.27;;;2.08;;
66139;SDS011;52945;51.908;8.364;2023-11-19T14:03:23;6.32;;;1.75;;
66139;SDS011;52945;51.908;8.364;2023-11-19T14:06:24;12.63;;;2.10;;
66139;SDS011;52945;51.908;8.364;2023-11-19T14:09:25;9.30;;;2.03;;
66139;SDS011;52945;51.908;8.364;2023-11-19T14:12:25;12.38;;;2.08;;
66139;SDS011;52945;51.908;8.364;2023-11-19T14:15:26;19.10;;;2.25;;
66139;SDS011;52945;51.908;8.364;2023-11-19T14:18:26;12.32;;;2.47;;
66139;SDS011;52945;51.908;8.364;2023-11-19T14:21:27;12.75;;;1.88;;
66139;SDS011;52945;51.908;8.364;2023-11-19T14:24:28;10.32;;;2.00;;
66139;SDS011;52945;51.908;8.364;2023-11-19T14:27:28;7.60;;;1.40;;
66139;SDS011;52945;51.908;8.364;2023-11-19T14:30:29;6.38;;;1.45;;
66139;SDS011;52945;51.908;8.364;2023-11-19T14:33:29;13.57;;;1.75;;
66139;SDS011;52945;51.908;8.364;2023-11-19T14:36:30;6.47;;;1.63;;
66139;SDS011;52945;51.908;8.364;2023-11-19T14:39:31;12.93;;;1.67;;
66139;SDS011;52945;51.908;8.364;2023-11-19T14:42:31;7.25;;;1.35;;
66139;SDS011;52945;51.908;8.364;2023-11-19T14:45:32;4.10;;;1.45;;
66139;SDS011;52945;51.908;8.364;2023-11-19T14:48:33;10.55;;;2.08;;
66139;SDS011;52945;51.908;8.364;2023-11-19T14:51:37;8.02;;;1.60;;
66139;SDS011;52945;51.908;8.364;2023-11-19T14:54:38;7.47;;;1.45;;
66139;SDS011;52945;51.908;8.364;2023-11-19T14:57:38;8.80;;;1.90;;
66139;SDS011;52945;51.908;8.364;2023-11-19T15:00:39;6.65;;;1.92;;
66139;SDS011;52945;51.908;8.364;2023-11-19T15:03:40;8.38;;;1.67;;
66139;SDS011;52945;51.908;8.364;2023-11-19T15:06:40;8.68;;;1.83;;
66139;SDS011;52945;51.908;8.364;2023-11-19T15:09:41;8.50;;;1.52;;
66139;SDS011;52945;51.908;8.364;2023-11-19T15:12:41;7.78;;;1.88;;
66139;SDS011;52945;51.908;8.364;2023-11-19T15:15:42;10.85;;;2.38;;
66139;SDS011;52945;51.908;8.364;2023-11-19T15:18:43;16.90;;;2.65;;
66139;SDS011;52945;51.908;8.364;2023-11-19T15:21:43;9.75;;;2.28;;
66139;SDS011;52945;51.908;8.364;2023-11-19T15:24:44;8.35;;;1.67;;
66139;SDS011;52945;51.908;8.364;2023-11-19T15:27:44;10.07;;;1.90;;
66139;SDS011;52945;51.908;8.364;2023-11-19T15:30:45;7.82;;;2.30;;
66139;SDS011;52945;51.908;8.364;2023-11-19T15:33:46;5.97;;;2.00;;
66139;SDS011;52945;51.908;8.364;2023-11-19T15:36:47;10.02;;;1.85;;
66139;SDS011;52945;51.908;8.364;2023-11-19T15:39:48;8.88;;;1.92;;
66139;SDS011;52945;51.908;8.364;2023-11-19T15:42:51;11.25;;;1.92;;
66139;SDS011;52945;51.908;8.364;2023-11-19T15:45:54;10.93;;;1.80;;
66139;SDS011;52945;51.908;8.364;2023-11-19T15:48:54;7.80;;;1.92;;
66139;SDS011;52945;51.908;8.364;2023-11-19T15:51:55;7.75;;;2.10;;
66139;SDS011;52945;51.908;8.364;2023-11-19T15:54:56;8.75;;;2.25;;
66139;SDS011;52945;51.908;8.364;2023-11-19T15:57:56;10.20;;;2.28;;
66139;SDS011;52945;51.908;8.364;2023-11-19T16:00:57;10.35;;;1.90;;
66139;SDS011;52945;51.908;8.364;2023-11-19T16:03:58;11.23;;;1.83;;
66139;SDS011;52945;51.908;8.364;2023-11-19T16:06:58;5.95;;;1.55;;
66139;SDS011;52945;51.908;8.364;2023-11-19T16:09:59;12.23;;;1.73;;
66139;SDS011;52945;51.908;8.364;2023-11-19T16:12:59;8.75;;;1.80;;
66139;SDS011;52945;51.908;8.364;2023-11-19T16:16:00;10.88;;;2.22;;
66139;SDS011;52945;51.908;8.364;2023-11-19T16:19:00;11.27;;;1.80;;
66139;SDS011;52945;51.908;8.364;2023-11-19T16:22:02;4.05;;;1.67;;
66139;SDS011;52945;51.908;8.364;2023-11-19T16:25:09;11.02;;;2.30;;
66139;SDS011;52945;51.908;8.364;2023-11-19T16:28:12;6.78;;;2.30;;
66139;SDS011;52945;51.908;8.364;2023-11-19T16:31:14;9.27;;;1.92;;
66139;SDS011;52945;51.908;8.364;2023-11-19T16:34:14;9.48;;;1.65;;
66139;SDS011;52945;51.908;8.364;2023-11-19T16:37:15;7.40;;;1.98;;
66139;SDS011;52945;51.908;8.364;2023-11-19T16:40:16;9.18;;;1.73;;
66139;SDS011;52945;51.908;8.364;2023-11-19T16:43:17;7.07;;;1.50;;
66139;SDS011;52945;51.908;8.364;2023-11-19T16:46:18;6.03;;;1.58;;
66139;SDS011;52945;51.908;8.364;2023-11-19T16:49:20;5.43;;;1.45;;
66139;SDS011;52945;51.908;8.364;2023-11-19T16:52:20;4.43;;;1.75;;
66139;SDS011;52945;51.908;8.364;2023-11-19T16:55:21;10.40;;;2.13;;
66139;SDS011;52945;51.908;8.364;2023-11-19T16:58:22;8.32;;;2.03;;
66139;SDS011;52945;51.908;8.364;2023-11-19T17:01:23;7.40;;;1.90;;
66139;SDS011;52945;51.908;8.364;2023-11-19T17:04:24;6.43;;;1.90;;
66139;SDS011;52945;51.908;8.364;2023-11-19T17:07:27;7.57;;;1.90;;
66139;SDS011;52945;51.908;8.364;2023-11-19T17:10:28;8.68;;;2.00;;
66139;SDS011;52945;51.908;8.364;2023-11-19T17:13:29;7.53;;;1.92;;
66139;SDS011;52945;51.908;8.364;2023-11-19T17:16:29;7.53;;;2.08;;
66139;SDS011;52945;51.908;8.364;2023-11-19T17:19:30;11.73;;;1.73;;
66139;SDS011;52945;51.908;8.364;2023-11-19T17:22:35;6.53;;;2.22;;
66139;SDS011;52945;51.908;8.364;2023-11-19T17:25:37;10.13;;;1.75;;
66139;SDS011;52945;51.908;8.364;2023-11-19T17:28:38;8.45;;;1.95;;
66139;SDS011;52945;51.908;8.364;2023-11-19T17:31:39;10.68;;;2.33;;
66139;SDS011;52945;51.908;8.364;2023-11-19T17:34:41;6.55;;;1.75;;
66139;SDS011;52945;51.908;8.364;2023-11-19T17:37:41;5.90;;;1.95;;
66139;SDS011;52945;51.908;8.364;2023-11-19T17:40:42;5.28;;;1.90;;
66139;SDS011;52945;51.908;8.364;2023-11-19T17:43:42;9.23;;;2.17;;
66139;SDS011;52945;51.908;8.364;2023-11-19T17:46:43;8.88;;;1.77;;
66139;SDS011;52945;51.908;8.364;2023-11-19T17:49:44;8.27;;;1.85;;
66139;SDS011;52945;51.908;8.364;2023-11-19T17:52:44;12.07;;;2.38;;
66139;SDS011;52945;51.908;8.364;2023-11-19T17:55:45;10.68;;;2.00;;
66139;SDS011;52945;51.908;8.364;2023-11-19T17:58:46;7.35;;;2.20;;
66139;SDS011;52945;51.908;8.364;2023-11-19T18:01:47;6.88;;;2.35;;
66139;SDS011;52945;51.908;8.364;2023-11-19T18:04:47;9.05;;;2.33;;
66139;SDS011;52945;51.908;8.364;2023-11-19T18:07:48;7.68;;;2.55;;
66139;SDS011;52945;51.908;8.364;2023-11-19T18:10:49;6.40;;;3.30;;
66139;SDS011;52945;51.908;8.364;2023-11-19T18:13:49;11.27;;;2.42;;
66139;SDS011;52945;51.908;8.364;2023-11-19T18:16:50;10.10;;;2.97;;
66139;SDS011;52945;51.908;8.364;2023-11-19T18:19:51;9.60;;;2.75;;
66139;SDS011;52945;51.908;8.364;2023-11-19T18:22:51;7.10;;;2.40;;
66139;SDS011;52945;51.908;8.364;2023-11-19T18:25:54;6.00;;;1.90;;
66139;SDS011;52945;51.908;8.364;2023-11-19T18:28:56;9.35;;;2.47;;
66139;SDS011;52945;51.908;8.364;2023-11-19T18:31:57;12.00;;;2.85;;
66139;SDS011;52945;51.908;8.364;2023-11-19T18:34:57;11.52;;;2.22;;
66139;SDS011;52945;51.908;8.364;2023-11-19T18:37:58;4.07;;;1.95;;